sensor_id;sensor_type;location;lat;lon;timestamp;P1;durP1;ratioP1;P2;durP2;ratioP2
59518;SDS011;46994;54.976;73.404;2022-07-05T00:01:19;1.92;;;1.30;;
59518;SDS011;46994;54.976;73.404;2022-07-05T00:03:45;10.82;;;1.92;;
59518;SDS011;46994;54.976;73.404;2022-07-05T00:06:12;1.65;;;1.13;;
59518;SDS011;46994;54.976;73.404;2022-07-05T00:08:39;3.92;;;1.55;;
59518;SDS011;46994;54.976;73.404;2022-07-05T00:11:06;8.52;;;1.38;;
59518;SDS011;46994;54.976;73.404;2022-07-05T00:13:32;4.03;;;1.52;;
59518;SDS011;46994;54.976;73.404;2022-07-05T00:15:59;6.35;;;1.25;;
59518;SDS011;46994;54.976;73.404;2022-07-05T00:18:26;3.33;;;1.60;;
59518;SDS011;46994;54.976;73.404;2022-07-05T00:20:53;1.85;;;1.40;;
59518;SDS011;46994;54.976;73.404;2022-07-05T00:23:19;5.40;;;1.23;;
59518;SDS011;46994;54.976;73.404;2022-07-05T00:25:46;6.80;;;1.50;;
59518;SDS011;46994;54.976;73.404;2022-07-05T00:28:13;10.32;;;1.60;;
59518;SDS011;46994;54.976;73.404;2022-07-05T00:30:41;5.28;;;1.17;;
59518;SDS011;46994;54.976;73.404;2022-07-05T00:33:08;2.42;;;1.30;;
59518;SDS011;46994;54.976;73.404;2022-07-05T00:35:35;4.13;;;1.58;;
59518;SDS011;46994;54.976;73.404;2022-07-05T00:38:01;6.70;;;1.30;;
59518;SDS011;46994;54.976;73.404;2022-07-05T00:40:28;4.32;;;1.40;;
59518;SDS011;46994;54.976;73.404;2022-07-05T00:42:55;4.57;;;1.40;;
59518;SDS011;46994;54.976;73.404;2022-07-05T00:45:22;9.20;;;2.22;;
59518;SDS011;46994;54.976;73.404;2022-07-05T00:47:48;7.30;;;1.58;;
59518;SDS011;46994;54.976;73.404;2022-07-05T00:50:15;3.25;;;1.67;;
59518;SDS011;46994;54.976;73.404;2022-07-05T00:52:42;6.38;;;1.67;;
59518;SDS011;46994;54.976;73.404;2022-07-05T00:55:08;13.43;;;2.25;;
59518;SDS011;46994;54.976;73.404;2022-07-05T00:57:35;7.13;;;1.42;;
59518;SDS011;46994;54.976;73.404;2022-07-05T01:00:03;2.63;;;1.40;;
59518;SDS011;46994;54.976;73.404;2022-07-05T01:02:31;3.28;;;1.10;;
59518;SDS011;46994;54.976;73.404;2022-07-05T01:04:58;3.88;;;1.73;;
59518;SDS011;46994;54.976;73.404;2022-07-05T01:07:26;4.30;;;1.55;;
59518;SDS011;46994;54.976;73.404;2022-07-05T01:09:53;2.35;;;1.42;;
59518;SDS011;46994;54.976;73.404;2022-07-05T01:12:21;8.00;;;1.42;;
59518;SDS011;46994;54.976;73.404;2022-07-05T01:14:48;7.80;;;1.35;;
59518;SDS011;46994;54.976;73.404;2022-07-05T01:17:15;2.45;;;1.23;;
59518;SDS011;46994;54.976;73.404;2022-07-05T01:19:42;3.60;;;1.58;;
59518;SDS011;46994;54.976;73.404;2022-07-05T01:22:16;10.10;;;1.52;;
59518;SDS011;46994;54.976;73.404;2022-07-05T01:24:48;3.72;;;1.50;;
59518;SDS011;46994;54.976;73.404;2022-07-05T01:27:16;3.47;;;1.80;;
59518;SDS011;46994;54.976;73.404;2022-07-05T01:29:44;13.10;;;2.38;;
59518;SDS011;46994;54.976;73.404;2022-07-05T01:32:12;9.77;;;4.05;;
59518;SDS011;46994;54.976;73.404;2022-07-05T01:34:40;11.77;;;3.70;;
59518;SDS011;46994;54.976;73.404;2022-07-05T01:37:07;10.35;;;5.45;;
59518;SDS011;46994;54.976;73.404;2022-07-05T01:39:34;11.18;;;5.20;;
59518;SDS011;46994;54.976;73.404;2022-07-05T01:42:02;12.52;;;5.97;;
59518;SDS011;46994;54.976;73.404;2022-07-05T01:44:29;6.97;;;4.85;;
59518;SDS011;46994;54.976;73.404;2022-07-05T01:46:58;11.30;;;5.43;;
59518;SDS011;46994;54.976;73.404;2022-07-05T01:49:30;8.27;;;4.20;;
59518;SDS011;46994;54.976;73.404;2022-07-05T01:52:07;8.02;;;4.15;;
59518;SDS011;46994;54.976;73.404;2022-07-05T01:54:36;8.73;;;3.80;;
59518;SDS011;46994;54.976;73.404;2022-07-05T01:57:04;10.35;;;3.35;;
59518;SDS011;46994;54.976;73.404;2022-07-05T01:59:32;9.35;;;4.53;;
59518;SDS011;46994;54.976;73.404;2022-07-05T02:02:00;9.10;;;3.83;;
59518;SDS011;46994;54.976;73.404;2022-07-05T02:04:27;14.65;;;3.90;;
59518;SDS011;46994;54.976;73.404;2022-07-05T02:06:55;12.30;;;4.13;;
59518;SDS011;46994;54.976;73.404;2022-07-05T02:09:23;51.17;;;8.35;;
59518;SDS011;46994;54.976;73.404;2022-07-05T02:11:51;23.15;;;6.50;;
59518;SDS011;46994;54.976;73.404;2022-07-05T02:14:18;25.75;;;6.32;;
59518;SDS011;46994;54.976;73.404;2022-07-05T02:16:46;36.78;;;4.65;;
59518;SDS011;46994;54.976;73.404;2022-07-05T02:19:14;8.15;;;3.67;;
59518;SDS011;46994;54.976;73.404;2022-07-05T02:21:42;21.98;;;4.30;;
59518;SDS011;46994;54.976;73.404;2022-07-05T02:24:14;9.90;;;3.30;;
59518;SDS011;46994;54.976;73.404;2022-07-05T02:27:10;18.98;;;2.97;;
59518;SDS011;46994;54.976;73.404;2022-07-05T02:29:37;14.23;;;3.88;;
59518;SDS011;46994;54.976;73.404;2022-07-05T02:32:05;11.10;;;4.95;;
59518;SDS011;46994;54.976;73.404;2022-07-05T02:34:32;25.15;;;2.67;;
59518;SDS011;46994;54.976;73.404;2022-07-05T02:36:59;70.90;;;6.75;;
59518;SDS011;46994;54.976;73.404;2022-07-05T02:39:25;18.27;;;3.95;;
59518;SDS011;46994;54.976;73.404;2022-07-05T02:41:55;22.40;;;3.78;;
59518;SDS011;46994;54.976;73.404;2022-07-05T02:44:22;21.13;;;3.88;;
59518;SDS011;46994;54.976;73.404;2022-07-05T02:46:50;19.52;;;2.65;;
59518;SDS011;46994;54.976;73.404;2022-07-05T02:49:17;16.95;;;3.17;;
59518;SDS011;46994;54.976;73.404;2022-07-05T02:51:44;21.70;;;2.42;;
59518;SDS011;46994;54.976;73.404;2022-07-05T02:54:30;11.20;;;3.10;;
59518;SDS011;46994;54.976;73.404;2022-07-05T02:56:57;11.07;;;3.22;;
59518;SDS011;46994;54.976;73.404;2022-07-05T02:59:26;14.00;;;2.70;;
59518;SDS011;46994;54.976;73.404;2022-07-05T03:01:54;11.25;;;2.63;;
59518;SDS011;46994;54.976;73.404;2022-07-05T03:04:21;5.72;;;2.42;;
59518;SDS011;46994;54.976;73.404;2022-07-05T03:06:52;6.57;;;2.38;;
59518;SDS011;46994;54.976;73.404;2022-07-05T03:09:24;9.45;;;3.20;;
59518;SDS011;46994;54.976;73.404;2022-07-05T03:11:51;19.52;;;3.17;;
59518;SDS011;46994;54.976;73.404;2022-07-05T03:14:18;26.10;;;3.42;;
59518;SDS011;46994;54.976;73.404;2022-07-05T03:16:48;20.15;;;3.47;;
59518;SDS011;46994;54.976;73.404;2022-07-05T03:19:15;11.93;;;2.45;;
59518;SDS011;46994;54.976;73.404;2022-07-05T03:21:42;11.52;;;2.30;;
59518;SDS011;46994;54.976;73.404;2022-07-05T03:24:10;14.35;;;2.13;;
59518;SDS011;46994;54.976;73.404;2022-07-05T03:26:39;10.48;;;3.15;;
59518;SDS011;46994;54.976;73.404;2022-07-05T03:29:06;9.82;;;2.75;;
59518;SDS011;46994;54.976;73.404;2022-07-05T03:31:33;17.25;;;3.00;;
59518;SDS011;46994;54.976;73.404;2022-07-05T03:34:02;10.18;;;2.83;;
59518;SDS011;46994;54.976;73.404;2022-07-05T03:36:31;13.57;;;2.50;;
59518;SDS011;46994;54.976;73.404;2022-07-05T03:38:59;14.43;;;2.40;;
59518;SDS011;46994;54.976;73.404;2022-07-05T03:41:27;8.43;;;2.70;;
59518;SDS011;46994;54.976;73.404;2022-07-05T03:43:54;21.35;;;2.88;;
59518;SDS011;46994;54.976;73.404;2022-07-05T03:46:21;10.48;;;2.90;;
59518;SDS011;46994;54.976;73.404;2022-07-05T03:48:48;4.28;;;2.13;;
59518;SDS011;46994;54.976;73.404;2022-07-05T03:51:17;12.32;;;2.28;;
59518;SDS011;46994;54.976;73.404;2022-07-05T03:53:45;10.23;;;2.28;;
59518;SDS011;46994;54.976;73.404;2022-07-05T03:56:12;11.70;;;3.08;;
59518;SDS011;46994;54.976;73.404;2022-07-05T03:58:40;19.05;;;2.97;;
59518;SDS011;46994;54.976;73.404;2022-07-05T04:01:07;11.60;;;2.53;;
59518;SDS011;46994;54.976;73.404;2022-07-05T04:03:34;11.15;;;2.53;;
59518;SDS011;46994;54.976;73.404;2022-07-05T04:06:01;9.50;;;2.28;;
59518;SDS011;46994;54.976;73.404;2022-07-05T04:08:29;21.42;;;2.17;;
59518;SDS011;46994;54.976;73.404;2022-07-05T04:10:56;14.38;;;2.55;;
59518;SDS011;46994;54.976;73.404;2022-07-05T04:13:23;12.32;;;3.05;;
59518;SDS011;46994;54.976;73.404;2022-07-05T04:15:53;19.88;;;5.68;;
59518;SDS011;46994;54.976;73.404;2022-07-05T04:18:22;44.13;;;7.95;;
59518;SDS011;46994;54.976;73.404;2022-07-05T04:20:49;22.52;;;4.90;;
59518;SDS011;46994;54.976;73.404;2022-07-05T04:23:16;17.08;;;3.92;;
59518;SDS011;46994;54.976;73.404;2022-07-05T04:25:43;21.35;;;4.40;;
59518;SDS011;46994;54.976;73.404;2022-07-05T04:28:17;13.23;;;2.77;;
59518;SDS011;46994;54.976;73.404;2022-07-05T04:30:46;9.65;;;3.13;;
59518;SDS011;46994;54.976;73.404;2022-07-05T04:33:14;14.57;;;4.07;;
59518;SDS011;46994;54.976;73.404;2022-07-05T04:35:44;11.55;;;3.08;;
59518;SDS011;46994;54.976;73.404;2022-07-05T04:38:10;9.07;;;3.35;;
59518;SDS011;46994;54.976;73.404;2022-07-05T04:40:40;24.45;;;5.28;;
59518;SDS011;46994;54.976;73.404;2022-07-05T04:43:07;8.80;;;3.17;;
59518;SDS011;46994;54.976;73.404;2022-07-05T04:45:34;15.30;;;3.58;;
59518;SDS011;46994;54.976;73.404;2022-07-05T04:48:01;21.77;;;4.45;;
59518;SDS011;46994;54.976;73.404;2022-07-05T04:50:30;35.38;;;4.80;;
59518;SDS011;46994;54.976;73.404;2022-07-05T04:52:57;13.40;;;4.35;;
59518;SDS011;46994;54.976;73.404;2022-07-05T04:55:24;17.92;;;5.30;;
59518;SDS011;46994;54.976;73.404;2022-07-05T04:57:51;13.57;;;3.78;;
59518;SDS011;46994;54.976;73.404;2022-07-05T05:00:18;11.10;;;3.22;;
59518;SDS011;46994;54.976;73.404;2022-07-05T05:02:45;6.90;;;3.42;;
59518;SDS011;46994;54.976;73.404;2022-07-05T05:05:11;45.60;;;6.88;;
59518;SDS011;46994;54.976;73.404;2022-07-05T05:07:42;22.60;;;4.95;;
59518;SDS011;46994;54.976;73.404;2022-07-05T05:10:09;6.82;;;3.03;;
59518;SDS011;46994;54.976;73.404;2022-07-05T05:12:37;19.08;;;5.15;;
59518;SDS011;46994;54.976;73.404;2022-07-05T05:15:03;24.58;;;4.93;;
59518;SDS011;46994;54.976;73.404;2022-07-05T05:17:38;19.77;;;4.18;;
59518;SDS011;46994;54.976;73.404;2022-07-05T05:20:09;19.10;;;3.38;;
59518;SDS011;46994;54.976;73.404;2022-07-05T05:22:38;11.55;;;3.13;;
59518;SDS011;46994;54.976;73.404;2022-07-05T05:25:05;12.32;;;3.88;;
59518;SDS011;46994;54.976;73.404;2022-07-05T05:27:32;26.38;;;5.20;;
59518;SDS011;46994;54.976;73.404;2022-07-05T05:29:58;18.75;;;6.13;;
59518;SDS011;46994;54.976;73.404;2022-07-05T05:32:25;49.80;;;8.75;;
59518;SDS011;46994;54.976;73.404;2022-07-05T05:34:52;32.90;;;3.97;;
59518;SDS011;46994;54.976;73.404;2022-07-05T05:37:19;15.55;;;3.45;;
59518;SDS011;46994;54.976;73.404;2022-07-05T05:39:45;12.05;;;3.47;;
59518;SDS011;46994;54.976;73.404;2022-07-05T05:42:12;13.52;;;4.47;;
59518;SDS011;46994;54.976;73.404;2022-07-05T05:44:39;18.05;;;4.80;;
59518;SDS011;46994;54.976;73.404;2022-07-05T05:47:05;32.25;;;5.55;;
59518;SDS011;46994;54.976;73.404;2022-07-05T05:49:32;35.03;;;7.38;;
59518;SDS011;46994;54.976;73.404;2022-07-05T05:51:59;19.35;;;4.32;;
59518;SDS011;46994;54.976;73.404;2022-07-05T05:54:26;28.10;;;4.15;;
59518;SDS011;46994;54.976;73.404;2022-07-05T05:56:52;14.52;;;3.42;;
59518;SDS011;46994;54.976;73.404;2022-07-05T05:59:19;19.27;;;2.50;;
59518;SDS011;46994;54.976;73.404;2022-07-05T06:01:46;18.42;;;4.35;;
59518;SDS011;46994;54.976;73.404;2022-07-05T06:04:13;7.35;;;3.05;;
59518;SDS011;46994;54.976;73.404;2022-07-05T06:06:39;18.55;;;2.85;;
59518;SDS011;46994;54.976;73.404;2022-07-05T06:09:06;27.90;;;5.13;;
59518;SDS011;46994;54.976;73.404;2022-07-05T06:11:33;73.47;;;10.88;;
59518;SDS011;46994;54.976;73.404;2022-07-05T06:14:00;26.58;;;5.53;;
59518;SDS011;46994;54.976;73.404;2022-07-05T06:16:26;21.73;;;5.30;;
59518;SDS011;46994;54.976;73.404;2022-07-05T06:18:53;13.88;;;4.07;;
59518;SDS011;46994;54.976;73.404;2022-07-05T06:21:20;20.85;;;3.15;;
59518;SDS011;46994;54.976;73.404;2022-07-05T06:23:47;24.88;;;3.42;;
59518;SDS011;46994;54.976;73.404;2022-07-05T06:26:13;9.82;;;2.58;;
59518;SDS011;46994;54.976;73.404;2022-07-05T06:28:40;10.57;;;2.88;;
59518;SDS011;46994;54.976;73.404;2022-07-05T06:31:07;16.77;;;3.45;;
59518;SDS011;46994;54.976;73.404;2022-07-05T06:33:33;11.07;;;3.03;;
59518;SDS011;46994;54.976;73.404;2022-07-05T06:36:00;13.13;;;2.95;;
59518;SDS011;46994;54.976;73.404;2022-07-05T06:38:27;16.50;;;3.47;;
59518;SDS011;46994;54.976;73.404;2022-07-05T06:40:54;46.60;;;6.05;;
59518;SDS011;46994;54.976;73.404;2022-07-05T06:43:23;24.80;;;4.95;;
59518;SDS011;46994;54.976;73.404;2022-07-05T06:46:01;26.83;;;4.53;;
59518;SDS011;46994;54.976;73.404;2022-07-05T06:48:28;12.00;;;4.03;;
59518;SDS011;46994;54.976;73.404;2022-07-05T06:50:54;9.75;;;2.75;;
59518;SDS011;46994;54.976;73.404;2022-07-05T06:53:21;23.02;;;5.40;;
59518;SDS011;46994;54.976;73.404;2022-07-05T06:55:48;30.08;;;5.47;;
59518;SDS011;46994;54.976;73.404;2022-07-05T06:58:16;21.02;;;5.30;;
59518;SDS011;46994;54.976;73.404;2022-07-05T07:00:43;21.67;;;4.53;;
59518;SDS011;46994;54.976;73.404;2022-07-05T07:03:10;12.52;;;3.45;;
59518;SDS011;46994;54.976;73.404;2022-07-05T07:05:37;15.32;;;4.40;;
59518;SDS011;46994;54.976;73.404;2022-07-05T07:08:04;13.20;;;4.25;;
59518;SDS011;46994;54.976;73.404;2022-07-05T07:10:49;31.63;;;6.13;;
59518;SDS011;46994;54.976;73.404;2022-07-05T07:13:16;14.70;;;4.03;;
59518;SDS011;46994;54.976;73.404;2022-07-05T07:15:43;12.75;;;3.58;;
59518;SDS011;46994;54.976;73.404;2022-07-05T07:18:09;15.27;;;4.20;;
59518;SDS011;46994;54.976;73.404;2022-07-05T07:20:36;38.67;;;5.05;;
59518;SDS011;46994;54.976;73.404;2022-07-05T07:23:03;11.90;;;3.60;;
59518;SDS011;46994;54.976;73.404;2022-07-05T07:25:30;15.13;;;4.25;;
59518;SDS011;46994;54.976;73.404;2022-07-05T07:27:57;59.83;;;8.85;;
59518;SDS011;46994;54.976;73.404;2022-07-05T07:30:24;52.13;;;7.97;;
59518;SDS011;46994;54.976;73.404;2022-07-05T07:32:53;44.38;;;5.82;;
59518;SDS011;46994;54.976;73.404;2022-07-05T07:35:21;23.90;;;5.10;;
59518;SDS011;46994;54.976;73.404;2022-07-05T07:37:48;25.55;;;6.05;;
59518;SDS011;46994;54.976;73.404;2022-07-05T07:40:15;33.53;;;5.82;;
59518;SDS011;46994;54.976;73.404;2022-07-05T07:42:41;72.43;;;12.88;;
59518;SDS011;46994;54.976;73.404;2022-07-05T07:45:08;25.60;;;4.93;;
59518;SDS011;46994;54.976;73.404;2022-07-05T07:47:36;25.38;;;4.75;;
59518;SDS011;46994;54.976;73.404;2022-07-05T07:50:03;35.15;;;7.35;;
59518;SDS011;46994;54.976;73.404;2022-07-05T07:52:31;33.10;;;5.85;;
59518;SDS011;46994;54.976;73.404;2022-07-05T07:55:03;50.67;;;12.43;;
59518;SDS011;46994;54.976;73.404;2022-07-05T07:57:31;39.67;;;7.45;;
59518;SDS011;46994;54.976;73.404;2022-07-05T07:59:58;40.30;;;7.30;;
59518;SDS011;46994;54.976;73.404;2022-07-05T08:02:25;34.42;;;7.43;;
59518;SDS011;46994;54.976;73.404;2022-07-05T08:04:51;37.20;;;6.85;;
59518;SDS011;46994;54.976;73.404;2022-07-05T08:07:19;13.10;;;3.90;;
59518;SDS011;46994;54.976;73.404;2022-07-05T08:09:46;29.35;;;6.07;;
59518;SDS011;46994;54.976;73.404;2022-07-05T08:12:13;29.45;;;5.35;;
59518;SDS011;46994;54.976;73.404;2022-07-05T08:14:40;108.32;;;14.93;;
59518;SDS011;46994;54.976;73.404;2022-07-05T08:17:07;57.10;;;10.73;;
59518;SDS011;46994;54.976;73.404;2022-07-05T08:19:35;33.10;;;7.20;;
59518;SDS011;46994;54.976;73.404;2022-07-05T08:22:21;30.23;;;6.18;;
59518;SDS011;46994;54.976;73.404;2022-07-05T08:24:48;82.95;;;15.38;;
59518;SDS011;46994;54.976;73.404;2022-07-05T08:27:16;101.32;;;14.15;;
59518;SDS011;46994;54.976;73.404;2022-07-05T08:29:43;21.23;;;5.68;;
59518;SDS011;46994;54.976;73.404;2022-07-05T08:32:10;17.25;;;3.13;;
59518;SDS011;46994;54.976;73.404;2022-07-05T08:34:37;22.05;;;4.85;;
59518;SDS011;46994;54.976;73.404;2022-07-05T08:37:04;27.65;;;7.22;;
59518;SDS011;46994;54.976;73.404;2022-07-05T08:39:32;6.32;;;2.08;;
59518;SDS011;46994;54.976;73.404;2022-07-05T08:41:59;20.20;;;3.85;;
59518;SDS011;46994;54.976;73.404;2022-07-05T08:44:27;17.25;;;4.10;;
59518;SDS011;46994;54.976;73.404;2022-07-05T08:46:56;13.95;;;3.85;;
59518;SDS011;46994;54.976;73.404;2022-07-05T08:49:24;18.85;;;3.75;;
59518;SDS011;46994;54.976;73.404;2022-07-05T08:51:53;29.38;;;6.25;;
59518;SDS011;46994;54.976;73.404;2022-07-05T08:54:21;17.48;;;5.25;;
59518;SDS011;46994;54.976;73.404;2022-07-05T08:56:50;27.63;;;6.28;;
59518;SDS011;46994;54.976;73.404;2022-07-05T08:59:17;39.97;;;6.45;;
59518;SDS011;46994;54.976;73.404;2022-07-05T09:01:47;22.42;;;5.43;;
59518;SDS011;46994;54.976;73.404;2022-07-05T09:04:16;21.27;;;5.07;;
59518;SDS011;46994;54.976;73.404;2022-07-05T09:06:45;20.27;;;4.65;;
59518;SDS011;46994;54.976;73.404;2022-07-05T09:09:15;18.02;;;4.50;;
59518;SDS011;46994;54.976;73.404;2022-07-05T09:11:45;9.10;;;3.00;;
59518;SDS011;46994;54.976;73.404;2022-07-05T09:14:18;16.95;;;3.83;;
59518;SDS011;46994;54.976;73.404;2022-07-05T09:16:50;17.80;;;3.42;;
59518;SDS011;46994;54.976;73.404;2022-07-05T09:19:17;12.32;;;3.92;;
59518;SDS011;46994;54.976;73.404;2022-07-05T09:21:45;7.03;;;3.60;;
59518;SDS011;46994;54.976;73.404;2022-07-05T09:24:12;18.45;;;4.05;;
59518;SDS011;46994;54.976;73.404;2022-07-05T09:26:40;14.13;;;4.05;;
59518;SDS011;46994;54.976;73.404;2022-07-05T09:29:12;12.32;;;2.80;;
59518;SDS011;46994;54.976;73.404;2022-07-05T09:31:41;12.73;;;3.47;;
59518;SDS011;46994;54.976;73.404;2022-07-05T09:34:10;10.82;;;3.08;;
59518;SDS011;46994;54.976;73.404;2022-07-05T09:36:57;8.50;;;2.80;;
59518;SDS011;46994;54.976;73.404;2022-07-05T09:43:13;21.92;;;3.60;;
59518;SDS011;46994;54.976;73.404;2022-07-05T09:46:00;10.57;;;3.42;;
59518;SDS011;46994;54.976;73.404;2022-07-05T09:48:32;9.85;;;3.20;;
59518;SDS011;46994;54.976;73.404;2022-07-05T09:51:07;9.73;;;3.65;;
59518;SDS011;46994;54.976;73.404;2022-07-05T09:56:14;17.92;;;3.95;;
59518;SDS011;46994;54.976;73.404;2022-07-05T09:58:42;8.45;;;3.40;;
59518;SDS011;46994;54.976;73.404;2022-07-05T10:03:55;13.35;;;3.78;;
59518;SDS011;46994;54.976;73.404;2022-07-05T10:06:24;8.77;;;3.83;;
59518;SDS011;46994;54.976;73.404;2022-07-05T10:08:52;11.50;;;4.30;;
59518;SDS011;46994;54.976;73.404;2022-07-05T10:11:20;6.82;;;3.30;;
59518;SDS011;46994;54.976;73.404;2022-07-05T10:13:51;7.38;;;3.13;;
59518;SDS011;46994;54.976;73.404;2022-07-05T10:16:20;8.10;;;3.97;;
59518;SDS011;46994;54.976;73.404;2022-07-05T10:18:52;11.25;;;4.55;;
59518;SDS011;46994;54.976;73.404;2022-07-05T10:21:21;9.15;;;4.93;;
59518;SDS011;46994;54.976;73.404;2022-07-05T10:23:50;10.40;;;3.40;;
59518;SDS011;46994;54.976;73.404;2022-07-05T10:26:22;4.43;;;3.55;;
59518;SDS011;46994;54.976;73.404;2022-07-05T10:28:50;11.48;;;3.17;;
59518;SDS011;46994;54.976;73.404;2022-07-05T10:31:18;9.60;;;4.05;;
59518;SDS011;46994;54.976;73.404;2022-07-05T10:33:45;10.57;;;4.32;;
59518;SDS011;46994;54.976;73.404;2022-07-05T10:36:12;15.13;;;3.67;;
59518;SDS011;46994;54.976;73.404;2022-07-05T10:38:43;11.43;;;3.80;;
59518;SDS011;46994;54.976;73.404;2022-07-05T10:41:13;11.25;;;4.68;;
59518;SDS011;46994;54.976;73.404;2022-07-05T10:43:44;12.10;;;3.97;;
59518;SDS011;46994;54.976;73.404;2022-07-05T10:46:11;15.85;;;4.85;;
59518;SDS011;46994;54.976;73.404;2022-07-05T10:51:57;10.20;;;4.53;;
59518;SDS011;46994;54.976;73.404;2022-07-05T10:54:25;10.20;;;4.15;;
59518;SDS011;46994;54.976;73.404;2022-07-05T11:00:06;16.23;;;3.95;;
59518;SDS011;46994;54.976;73.404;2022-07-05T11:02:33;8.38;;;3.50;;
59518;SDS011;46994;54.976;73.404;2022-07-05T11:04:59;9.18;;;3.20;;
59518;SDS011;46994;54.976;73.404;2022-07-05T11:10:31;10.48;;;3.53;;
59518;SDS011;46994;54.976;73.404;2022-07-05T11:12:58;21.65;;;4.55;;
59518;SDS011;46994;54.976;73.404;2022-07-05T11:15:25;6.20;;;3.75;;
59518;SDS011;46994;54.976;73.404;2022-07-05T11:18:13;9.93;;;3.85;;
59518;SDS011;46994;54.976;73.404;2022-07-05T11:20:42;5.80;;;3.80;;
59518;SDS011;46994;54.976;73.404;2022-07-05T11:23:10;15.02;;;3.85;;
59518;SDS011;46994;54.976;73.404;2022-07-05T11:25:42;13.05;;;4.38;;
59518;SDS011;46994;54.976;73.404;2022-07-05T11:28:13;7.72;;;3.08;;
59518;SDS011;46994;54.976;73.404;2022-07-05T11:30:47;5.10;;;3.97;;
59518;SDS011;46994;54.976;73.404;2022-07-05T11:33:35;8.75;;;4.72;;
59518;SDS011;46994;54.976;73.404;2022-07-05T11:36:04;10.68;;;4.50;;
59518;SDS011;46994;54.976;73.404;2022-07-05T11:38:33;8.05;;;4.72;;
59518;SDS011;46994;54.976;73.404;2022-07-05T11:41:13;8.05;;;4.63;;
59518;SDS011;46994;54.976;73.404;2022-07-05T11:43:40;11.40;;;4.68;;
59518;SDS011;46994;54.976;73.404;2022-07-05T11:46:08;10.45;;;5.20;;
59518;SDS011;46994;54.976;73.404;2022-07-05T11:48:36;7.78;;;4.03;;
59518;SDS011;46994;54.976;73.404;2022-07-05T11:51:13;16.25;;;4.43;;
59518;SDS011;46994;54.976;73.404;2022-07-05T11:53:41;13.48;;;4.40;;
59518;SDS011;46994;54.976;73.404;2022-07-05T11:56:12;20.33;;;5.32;;
59518;SDS011;46994;54.976;73.404;2022-07-05T11:58:39;15.90;;;4.53;;
59518;SDS011;46994;54.976;73.404;2022-07-05T12:01:05;13.60;;;4.38;;
59518;SDS011;46994;54.976;73.404;2022-07-05T12:03:33;11.98;;;4.55;;
59518;SDS011;46994;54.976;73.404;2022-07-05T12:06:10;8.48;;;4.95;;
59518;SDS011;46994;54.976;73.404;2022-07-05T12:08:41;12.73;;;4.85;;
59518;SDS011;46994;54.976;73.404;2022-07-05T12:11:11;18.73;;;5.97;;
59518;SDS011;46994;54.976;73.404;2022-07-05T12:13:57;20.08;;;6.93;;
59518;SDS011;46994;54.976;73.404;2022-07-05T12:16:24;12.88;;;10.30;;
59518;SDS011;46994;54.976;73.404;2022-07-05T12:18:54;13.00;;;4.97;;
59518;SDS011;46994;54.976;73.404;2022-07-05T12:21:27;10.55;;;5.07;;
59518;SDS011;46994;54.976;73.404;2022-07-05T12:23:54;10.48;;;5.22;;
59518;SDS011;46994;54.976;73.404;2022-07-05T12:26:21;11.35;;;4.60;;
59518;SDS011;46994;54.976;73.404;2022-07-05T12:28:49;15.75;;;5.82;;
59518;SDS011;46994;54.976;73.404;2022-07-05T12:31:20;18.05;;;5.93;;
59518;SDS011;46994;54.976;73.404;2022-07-05T12:33:48;13.88;;;5.47;;
59518;SDS011;46994;54.976;73.404;2022-07-05T12:36:19;5.05;;;4.05;;
59518;SDS011;46994;54.976;73.404;2022-07-05T12:38:58;14.32;;;5.45;;
59518;SDS011;46994;54.976;73.404;2022-07-05T12:41:25;9.68;;;4.93;;
59518;SDS011;46994;54.976;73.404;2022-07-05T12:43:52;13.00;;;4.82;;
59518;SDS011;46994;54.976;73.404;2022-07-05T12:46:21;15.80;;;5.03;;
59518;SDS011;46994;54.976;73.404;2022-07-05T12:49:02;15.32;;;5.57;;
59518;SDS011;46994;54.976;73.404;2022-07-05T12:51:33;9.88;;;5.18;;
59518;SDS011;46994;54.976;73.404;2022-07-05T12:54:02;10.30;;;4.10;;
59518;SDS011;46994;54.976;73.404;2022-07-05T12:56:52;15.82;;;4.65;;
59518;SDS011;46994;54.976;73.404;2022-07-05T12:59:38;7.07;;;3.85;;
59518;SDS011;46994;54.976;73.404;2022-07-05T13:02:08;8.07;;;4.35;;
59518;SDS011;46994;54.976;73.404;2022-07-05T13:04:36;16.10;;;8.18;;
59518;SDS011;46994;54.976;73.404;2022-07-05T13:07:25;18.73;;;8.27;;
59518;SDS011;46994;54.976;73.404;2022-07-05T13:09:53;9.30;;;5.75;;
59518;SDS011;46994;54.976;73.404;2022-07-05T13:12:20;9.00;;;4.22;;
59518;SDS011;46994;54.976;73.404;2022-07-05T13:14:51;9.52;;;5.32;;
59518;SDS011;46994;54.976;73.404;2022-07-05T13:17:19;7.78;;;4.53;;
59518;SDS011;46994;54.976;73.404;2022-07-05T13:19:48;10.30;;;4.20;;
59518;SDS011;46994;54.976;73.404;2022-07-05T13:22:16;13.93;;;5.22;;
59518;SDS011;46994;54.976;73.404;2022-07-05T13:24:43;13.50;;;5.25;;
59518;SDS011;46994;54.976;73.404;2022-07-05T13:27:11;23.30;;;5.30;;
59518;SDS011;46994;54.976;73.404;2022-07-05T13:29:39;7.75;;;5.35;;
59518;SDS011;46994;54.976;73.404;2022-07-05T13:32:06;10.75;;;4.97;;
59518;SDS011;46994;54.976;73.404;2022-07-05T13:34:33;11.60;;;4.63;;
59518;SDS011;46994;54.976;73.404;2022-07-05T13:37:00;6.30;;;4.68;;
59518;SDS011;46994;54.976;73.404;2022-07-05T13:39:27;8.52;;;4.10;;
59518;SDS011;46994;54.976;73.404;2022-07-05T13:41:55;7.10;;;4.35;;
59518;SDS011;46994;54.976;73.404;2022-07-05T13:44:22;6.20;;;5.22;;
59518;SDS011;46994;54.976;73.404;2022-07-05T13:46:49;13.02;;;5.68;;
59518;SDS011;46994;54.976;73.404;2022-07-05T13:52:13;13.77;;;5.22;;
59518;SDS011;46994;54.976;73.404;2022-07-05T13:54:40;6.72;;;4.88;;
59518;SDS011;46994;54.976;73.404;2022-07-05T13:57:09;11.23;;;6.15;;
59518;SDS011;46994;54.976;73.404;2022-07-05T13:59:35;9.02;;;5.35;;
59518;SDS011;46994;54.976;73.404;2022-07-05T14:02:02;12.27;;;7.43;;
59518;SDS011;46994;54.976;73.404;2022-07-05T14:04:29;11.13;;;7.57;;
59518;SDS011;46994;54.976;73.404;2022-07-05T14:06:57;12.10;;;8.30;;
59518;SDS011;46994;54.976;73.404;2022-07-05T14:09:24;8.20;;;6.25;;
59518;SDS011;46994;54.976;73.404;2022-07-05T14:11:51;7.13;;;6.10;;
59518;SDS011;46994;54.976;73.404;2022-07-05T14:14:18;7.30;;;6.50;;
59518;SDS011;46994;54.976;73.404;2022-07-05T14:16:45;9.57;;;6.65;;
59518;SDS011;46994;54.976;73.404;2022-07-05T14:19:11;7.97;;;6.80;;
59518;SDS011;46994;54.976;73.404;2022-07-05T14:21:38;12.75;;;7.03;;
59518;SDS011;46994;54.976;73.404;2022-07-05T14:24:05;8.52;;;7.30;;
59518;SDS011;46994;54.976;73.404;2022-07-05T14:26:32;8.65;;;7.32;;
59518;SDS011;46994;54.976;73.404;2022-07-05T14:28:59;13.82;;;9.68;;
59518;SDS011;46994;54.976;73.404;2022-07-05T14:31:27;14.70;;;7.88;;
59518;SDS011;46994;54.976;73.404;2022-07-05T14:33:56;9.70;;;5.45;;
59518;SDS011;46994;54.976;73.404;2022-07-05T14:36:23;10.13;;;6.43;;
59518;SDS011;46994;54.976;73.404;2022-07-05T14:38:50;9.38;;;6.38;;
59518;SDS011;46994;54.976;73.404;2022-07-05T14:41:16;10.48;;;6.47;;
59518;SDS011;46994;54.976;73.404;2022-07-05T14:43:43;9.25;;;6.88;;
59518;SDS011;46994;54.976;73.404;2022-07-05T14:46:10;8.52;;;5.55;;
59518;SDS011;46994;54.976;73.404;2022-07-05T14:48:39;17.27;;;6.57;;
59518;SDS011;46994;54.976;73.404;2022-07-05T14:51:06;8.75;;;5.38;;
59518;SDS011;46994;54.976;73.404;2022-07-05T14:53:32;7.15;;;4.88;;
59518;SDS011;46994;54.976;73.404;2022-07-05T14:55:59;9.98;;;5.82;;